Time;durP1;ratioP1;P1;durP2;ratioP2;P2;SDS_P1;SDS_P2;PMS_P1;PMS_P2;Temp;Humidity;BMP_temperature;BMP_pressure;BME280_temperature;BME280_humidity;BME280_pressure;Samples;Min_cycle;Max_cycle;Signal;HPM_P1;HPM_P2
2022/12/02 00:00:24;;;;;;;7.68;4.40;;;7.10;77.40;;;;;;5073499;28;20035;-14
2022/12/02 00:02:53;;;;;;;7.15;4.25;;;7.10;77.80;;;;;;5073355;28;20020;-14
2022/12/02 00:05:32;;;;;;;7.63;4.28;;;7.00;78.20;;;;;;5073575;28;20024;-14
2022/12/02 00:08:09;;;;;;;7.22;4.10;;;7.00;78.00;;;;;;5073706;28;20037;-14
2022/12/02 00:10:38;;;;;;;6.18;3.85;;;7.00;78.50;;;;;;5073415;28;20073;-13
2022/12/02 00:13:14;;;;;;;6.13;3.80;;;7.00;78.20;;;;;;5072953;28;20536;-13
2022/12/02 00:15:46;;;;;;;6.82;3.72;;;7.00;78.50;;;;;;5073302;28;20554;-12
2022/12/02 00:18:14;;;;;;;7.80;3.90;;;7.00;78.60;;;;;;5073244;28;20085;-13
2022/12/02 00:20:41;;;;;;;7.15;3.97;;;6.90;78.80;;;;;;5073479;28;20024;-13
2022/12/02 00:23:07;;;;;;;6.20;3.95;;;6.90;79.20;;;;;;5072890;28;20162;-12
2022/12/02 00:25:34;;;;;;;6.22;3.80;;;6.90;79.10;;;;;;5073263;28;20457;-12
2022/12/02 00:28:00;;;;;;;8.27;3.78;;;6.90;79.00;;;;;;5073129;28;20025;-13
2022/12/02 00:30:27;;;;;;;6.70;4.00;;;6.90;79.40;;;;;;5073363;28;20052;-14
2022/12/02 00:32:53;;;;;;;6.78;3.97;;;6.90;79.50;;;;;;5073008;28;20115;-14
2022/12/02 00:35:20;;;;;;;6.10;3.67;;;6.90;79.50;;;;;;5073335;28;20052;-14
2022/12/02 00:37:46;;;;;;;6.28;4.00;;;6.90;79.60;;;;;;5073114;28;20545;-13
2022/12/02 00:40:12;;;;;;;7.55;3.97;;;6.90;80.00;;;;;;5073139;28;20032;-14
2022/12/02 00:42:38;;;;;;;7.82;3.90;;;6.80;80.10;;;;;;5073017;28;20056;-14
2022/12/02 00:47:52;;;;;;;6.30;3.50;;;6.80;79.90;;;;;;5073268;28;20511;-13
2022/12/02 00:50:18;;;;;;;6.00;3.60;;;6.90;80.40;;;;;;5072713;28;20534;-13
2022/12/02 00:52:44;;;;;;;5.45;3.58;;;6.90;80.00;;;;;;5072710;28;20029;-13
2022/12/02 00:55:10;;;;;;;5.68;3.63;;;6.90;80.40;;;;;;5072977;28;20029;-14
2022/12/02 00:57:36;;;;;;;5.63;3.40;;;6.90;80.20;;;;;;5072562;28;20543;-13
2022/12/02 01:00:04;;;;;;;5.97;3.38;;;6.90;80.30;;;;;;5072547;28;20039;-13
2022/12/02 01:02:30;;;;;;;5.22;3.25;;;6.90;80.30;;;;;;5072899;28;20053;-13
2022/12/02 01:04:56;;;;;;;6.30;3.53;;;6.90;80.10;;;;;;5072621;28;20031;-13
2022/12/02 01:07:23;;;;;;;6.10;3.50;;;6.90;80.10;;;;;;5073042;28;20025;-13
2022/12/02 01:09:49;;;;;;;5.70;3.38;;;6.90;80.20;;;;;;5071939;28;20028;-14
2022/12/02 01:12:16;;;;;;;5.85;3.28;;;6.90;80.10;;;;;;5072667;28;20086;-14
2022/12/02 01:14:42;;;;;;;6.35;3.40;;;6.90;79.40;;;;;;5072604;28;20365;-14
2022/12/02 01:17:08;;;;;;;5.85;3.35;;;6.90;79.60;;;;;;5072240;28;20036;-14
2022/12/02 01:19:34;;;;;;;5.45;3.20;;;6.90;79.80;;;;;;5072452;28;20021;-14
2022/12/02 01:22:00;;;;;;;6.95;3.20;;;6.90;79.90;;;;;;5072681;28;20029;-13
2022/12/02 01:24:26;;;;;;;5.25;3.30;;;6.90;79.70;;;;;;5072734;28;20032;-13
2022/12/02 01:26:52;;;;;;;4.93;3.08;;;6.90;79.30;;;;;;5071996;28;20116;-14
2022/12/02 01:29:18;;;;;;;5.65;3.42;;;6.90;79.40;;;;;;5072765;28;20075;-12
2022/12/02 01:31:44;;;;;;;3.58;2.92;;;6.90;79.90;;;;;;5072651;28;20016;-14
2022/12/02 01:34:10;;;;;;;6.22;3.22;;;6.90;79.40;;;;;;5072599;28;20028;-13
2022/12/02 01:36:36;;;;;;;4.57;2.78;;;6.90;79.30;;;;;;5072461;28;20028;-14
2022/12/02 01:39:02;;;;;;;6.72;3.00;;;6.90;79.30;;;;;;5072280;28;20377;-14
2022/12/02 01:41:28;;;;;;;5.28;3.00;;;6.90;79.10;;;;;;5072425;28;20024;-14
2022/12/02 01:43:54;;;;;;;5.03;3.20;;;6.90;79.50;;;;;;5072184;28;20102;-14
2022/12/02 01:46:20;;;;;;;5.28;3.03;;;6.90;79.60;;;;;;5072185;28;20496;-13
2022/12/02 01:48:48;;;;;;;3.92;2.75;;;6.90;79.90;;;;;;5072119;28;20056;-14
2022/12/02 01:51:14;;;;;;;4.70;2.83;;;6.90;79.70;;;;;;5072070;28;20391;-14
2022/12/02 01:53:40;;;;;;;4.72;2.83;;;6.90;79.70;;;;;;5072256;28;20021;-14
2022/12/02 01:56:09;;;;;;;4.35;2.72;;;6.90;80.20;;;;;;5072021;28;20028;-13
2022/12/02 01:58:36;;;;;;;5.50;2.90;;;6.90;79.70;;;;;;5071995;28;20112;-14
2022/12/02 02:01:02;;;;;;;4.40;3.05;;;6.90;79.50;;;;;;5071760;28;20074;-13
2022/12/02 02:03:28;;;;;;;4.25;2.70;;;6.90;80.60;;;;;;5071942;28;20025;-15
2022/12/02 02:05:55;;;;;;;4.18;2.75;;;6.90;79.80;;;;;;5072085;28;20039;-14
2022/12/02 02:08:22;;;;;;;4.50;2.85;;;6.90;79.80;;;;;;5072002;28;20033;-13
2022/12/02 02:10:48;;;;;;;4.20;2.58;;;6.90;80.30;;;;;;5071824;28;20496;-14
2022/12/02 02:13:16;;;;;;;3.50;2.40;;;6.90;79.80;;;;;;5072000;28;20384;-14
2022/12/02 02:15:44;;;;;;;3.67;2.47;;;6.90;79.70;;;;;;5071933;28;20551;-15
2022/12/02 02:18:11;;;;;;;3.97;2.85;;;6.90;79.30;;;;;;5072853;28;20403;-14
2022/12/02 02:20:40;;;;;;;2.65;2.13;;;6.90;79.20;;;;;;5072209;28;20039;-13
2022/12/02 02:23:06;;;;;;;3.15;2.47;;;6.90;79.30;;;;;;5075121;28;20029;-14
2022/12/02 02:25:54;;;;;;;3.90;2.50;;;6.90;79.70;;;;;;5075538;28;20119;-12
2022/12/02 02:28:23;;;;;;;3.60;2.42;;;6.90;79.00;;;;;;5075707;28;20047;-14
2022/12/02 02:30:54;;;;;;;5.72;2.90;;;6.90;79.10;;;;;;5075033;28;20028;-13
2022/12/02 02:33:22;;;;;;;3.45;2.40;;;7.00;79.40;;;;;;5074006;28;20102;-13
2022/12/02 02:35:49;;;;;;;3.75;2.30;;;7.00;79.20;;;;;;5075174;28;20021;-13
2022/12/02 02:38:21;;;;;;;5.45;2.90;;;7.00;79.20;;;;;;5075661;28;20032;-13
2022/12/02 02:40:48;;;;;;;3.30;2.25;;;7.00;79.30;;;;;;5075194;28;20024;-14
2022/12/02 02:43:15;;;;;;;3.38;2.42;;;7.00;79.30;;;;;;5075243;28;20029;-14
2022/12/02 02:45:43;;;;;;;4.00;2.38;;;7.00;79.30;;;;;;5074873;28;20043;-13
2022/12/02 02:48:11;;;;;;;4.88;3.05;;;7.00;79.40;;;;;;5074985;28;20036;-14
2022/12/02 02:50:41;;;;;;;4.53;2.80;;;7.00;79.80;;;;;;5075020;28;20020;-13
2022/12/02 02:53:07;;;;;;;4.30;2.72;;;7.00;79.60;;;;;;5074599;28;20480;-14
2022/12/02 02:55:34;;;;;;;3.30;2.50;;;7.00;79.70;;;;;;5075125;28;20055;-14
2022/12/02 02:58:13;;;;;;;4.32;2.60;;;7.00;79.40;;;;;;5074743;28;20392;-13
2022/12/02 03:00:48;;;;;;;3.55;2.40;;;7.10;79.20;;;;;;5073467;28;20086;-13
2022/12/02 03:03:19;;;;;;;3.70;2.40;;;7.10;78.90;;;;;;5074671;28;20064;-13
2022/12/02 03:05:46;;;;;;;5.00;2.95;;;7.10;79.30;;;;;;5074607;28;20039;-13
2022/12/02 03:08:13;;;;;;;4.72;2.95;;;7.10;79.10;;;;;;5074718;28;20032;-14
2022/12/02 03:10:40;;;;;;;3.70;2.33;;;7.10;79.20;;;;;;5074502;28;20123;-16
2022/12/02 03:13:06;;;;;;;4.20;2.40;;;7.10;78.90;;;;;;5074132;28;20048;-14
2022/12/02 03:15:32;;;;;;;4.55;2.50;;;7.10;78.90;;;;;;5074522;28;20078;-14
2022/12/02 03:17:58;;;;;;;3.90;2.40;;;7.10;79.00;;;;;;5074669;28;20028;-14
2022/12/02 03:20:25;;;;;;;4.47;2.75;;;7.10;78.90;;;;;;5073043;28;20085;-14
2022/12/02 03:22:51;;;;;;;4.90;2.60;;;7.10;78.90;;;;;;5074085;28;20048;-13
2022/12/02 03:25:18;;;;;;;3.45;2.50;;;7.10;78.60;;;;;;5074257;28;20029;-12
2022/12/02 03:27:44;;;;;;;3.53;2.45;;;7.10;78.70;;;;;;5074252;28;20044;-14
2022/12/02 03:30:10;;;;;;;5.30;2.60;;;7.10;79.00;;;;;;5074352;28;20069;-13
2022/12/02 03:32:37;;;;;;;3.80;2.60;;;7.10;79.60;;;;;;5074031;28;20028;-13
2022/12/02 03:35:04;;;;;;;4.88;2.40;;;7.00;79.80;;;;;;5073958;28;20109;-14
2022/12/02 03:37:30;;;;;;;2.65;2.17;;;7.00;79.60;;;;;;5074280;28;20021;-14
2022/12/02 03:39:56;;;;;;;4.45;2.60;;;7.00;79.50;;;;;;5072696;28;20035;-13
2022/12/02 03:42:23;;;;;;;2.78;2.42;;;7.00;79.50;;;;;;5074067;28;20120;-13
2022/12/02 03:44:49;;;;;;;3.80;2.70;;;6.90;79.40;;;;;;5073499;28;20044;-15
2022/12/02 03:47:16;;;;;;;3.97;2.40;;;6.90;80.20;;;;;;5073760;28;20041;-13
2022/12/02 03:49:43;;;;;;;3.67;2.80;;;7.00;80.00;;;;;;5073752;28;20115;-14
2022/12/02 03:52:10;;;;;;;4.68;2.85;;;6.90;80.10;;;;;;5073604;28;20043;-13
2022/12/02 03:54:37;;;;;;;3.70;2.28;;;7.00;79.60;;;;;;5073770;28;20074;-13
2022/12/02 03:57:06;;;;;;;3.42;2.47;;;7.00;79.60;;;;;;5073333;28;20028;-14
2022/12/02 03:59:32;;;;;;;3.63;2.42;;;6.90;79.50;;;;;;5073902;28;20035;-13
2022/12/02 04:01:58;;;;;;;3.50;2.40;;;6.90;79.70;;;;;;5072272;28;20392;-13
2022/12/02 04:04:24;;;;;;;4.05;2.65;;;6.90;79.90;;;;;;5073889;28;20104;-13
2022/12/02 04:06:50;;;;;;;3.90;2.47;;;7.00;79.80;;;;;;5073099;28;20429;-13
2022/12/02 04:09:16;;;;;;;4.15;2.53;;;6.90;79.80;;;;;;5073810;28;20028;-14
2022/12/02 04:11:41;;;;;;;3.95;2.42;;;6.90;79.70;;;;;;5073357;28;20103;-17
2022/12/02 04:14:07;;;;;;;3.35;2.30;;;6.90;80.00;;;;;;5073227;28;20566;-13
2022/12/02 04:16:33;;;;;;;3.95;2.72;;;6.90;79.80;;;;;;5073387;28;20017;-14
2022/12/02 04:18:59;;;;;;;4.15;2.80;;;6.90;79.90;;;;;;5073070;28;20396;-13
2022/12/02 04:21:25;;;;;;;4.05;2.70;;;6.90;79.40;;;;;;5073365;28;20021;-13
2022/12/02 04:23:52;;;;;;;4.07;2.20;;;6.90;79.50;;;;;;5073127;28;20025;-13
2022/12/02 04:26:19;;;;;;;3.67;2.38;;;6.90;79.10;;;;;;5072877;28;20025;-12
2022/12/02 04:28:44;;;;;;;4.28;2.70;;;6.90;79.50;;;;;;5073067;28;20043;-13
2022/12/02 04:31:10;;;;;;;3.53;2.45;;;6.90;79.60;;;;;;5072746;28;20029;-13
2022/12/02 04:33:36;;;;;;;3.90;2.53;;;6.90;79.70;;;;;;5072917;28;20021;-13
2022/12/02 04:36:02;;;;;;;3.45;2.60;;;6.90;79.80;;;;;;5072944;28;20016;-13
2022/12/02 04:38:27;;;;;;;3.13;2.40;;;6.90;79.30;;;;;;5071898;28;20032;-12
2022/12/02 04:40:53;;;;;;;3.33;2.55;;;6.90;79.20;;;;;;5072627;28;20127;-13
2022/12/02 04:43:19;;;;;;;3.95;2.10;;;6.90;79.10;;;;;;5072279;28;20145;-14
2022/12/02 04:45:45;;;;;;;3.40;2.70;;;6.90;79.20;;;;;;5072477;28;20147;-13
2022/12/02 04:48:11;;;;;;;3.38;2.53;;;6.90;79.10;;;;;;5072968;28;20370;-13
2022/12/02 04:50:37;;;;;;;4.03;2.45;;;6.90;79.10;;;;;;5073019;28;20381;-13
2022/12/02 04:53:03;;;;;;;4.38;3.00;;;6.90;79.10;;;;;;5072544;28;20485;-13
2022/12/02 04:55:29;;;;;;;3.35;2.53;;;6.90;79.10;;;;;;5072623;28;20029;-13
2022/12/02 04:57:55;;;;;;;3.97;2.50;;;6.90;79.00;;;;;;5071194;28;20031;-14
2022/12/02 05:00:20;;;;;;;3.55;2.28;;;6.90;79.30;;;;;;5072630;28;20106;-14
2022/12/02 05:02:46;;;;;;;4.32;2.63;;;6.90;79.10;;;;;;5072950;28;20107;-13
2022/12/02 05:05:12;;;;;;;5.45;2.83;;;6.90;79.10;;;;;;5072876;28;20112;-14
2022/12/02 05:07:38;;;;;;;3.67;2.42;;;6.90;79.00;;;;;;5072548;28;20036;-14
2022/12/02 05:10:05;;;;;;;3.88;2.40;;;6.90;79.00;;;;;;5072478;28;20032;-13
2022/12/02 05:12:31;;;;;;;4.53;2.90;;;6.90;78.80;;;;;;5072326;28;20488;-12
2022/12/02 05:14:56;;;;;;;4.28;2.85;;;6.90;78.80;;;;;;5072214;28;20025;-14
2022/12/02 05:17:22;;;;;;;3.35;2.60;;;6.90;78.80;;;;;;5072773;28;20020;-14
2022/12/02 05:19:48;;;;;;;4.55;2.90;;;7.00;78.80;;;;;;5072775;28;20361;-15
2022/12/02 05:22:14;;;;;;;4.13;2.80;;;7.00;79.00;;;;;;5072540;28;20020;-14
2022/12/02 05:24:40;;;;;;;3.67;2.50;;;6.90;79.00;;;;;;5072354;28;20086;-14
2022/12/02 05:27:06;;;;;;;4.43;2.75;;;7.00;79.60;;;;;;5071993;28;20035;-15
2022/12/02 05:29:31;;;;;;;3.50;2.42;;;7.00;79.10;;;;;;5072367;28;20037;-13
2022/12/02 05:31:57;;;;;;;3.80;2.50;;;6.90;79.60;;;;;;5072580;28;20021;-14
2022/12/02 05:34:23;;;;;;;5.13;2.40;;;7.00;79.00;;;;;;5072275;28;20384;-14
2022/12/02 05:36:49;;;;;;;6.80;3.05;;;7.00;78.70;;;;;;5072360;28;20117;-13
2022/12/02 05:39:15;;;;;;;3.42;2.40;;;7.00;78.90;;;;;;5072219;28;20089;-14
2022/12/02 05:41:41;;;;;;;4.20;2.78;;;7.00;79.00;;;;;;5072432;28;20153;-14
2022/12/02 05:44:20;;;;;;;3.78;2.33;;;7.00;79.10;;;;;;5071956;28;20045;-13
2022/12/02 05:46:47;;;;;;;4.00;2.70;;;7.00;79.30;;;;;;5070886;28;20115;-14
2022/12/02 05:49:19;;;;;;;4.40;2.83;;;7.00;79.50;;;;;;5072643;28;20071;-13
2022/12/02 05:51:58;;;;;;;4.97;3.10;;;7.00;79.20;;;;;;5072491;28;20059;-14
2022/12/02 05:54:25;;;;;;;4.57;2.85;;;7.00;79.50;;;;;;5072451;28;20024;-14
2022/12/02 05:56:51;;;;;;;5.85;3.33;;;7.00;79.70;;;;;;5075386;28;20017;-14
2022/12/02 05:59:19;;;;;;;5.20;3.25;;;7.00;79.60;;;;;;5075807;28;20119;-13
2022/12/02 06:01:53;;;;;;;4.65;2.80;;;7.10;79.60;;;;;;5076041;28;20099;-13
2022/12/02 06:04:23;;;;;;;4.25;2.50;;;7.10;79.50;;;;;;5076110;28;20056;-13
2022/12/02 06:06:54;;;;;;;5.22;2.80;;;7.10;79.70;;;;;;5075590;28;20036;-13
2022/12/02 06:09:26;;;;;;;4.60;2.97;;;7.00;79.60;;;;;;5074522;28;20028;-15
2022/12/02 06:11:52;;;;;;;7.07;3.05;;;7.10;79.40;;;;;;5075796;28;20060;-13
2022/12/02 06:14:21;;;;;;;4.00;2.75;;;7.10;79.60;;;;;;5075579;28;20067;-13
2022/12/02 06:16:54;;;;;;;3.60;2.60;;;7.10;79.60;;;;;;5075822;28;20025;-14
2022/12/02 06:19:26;;;;;;;3.72;2.50;;;7.10;79.40;;;;;;5074312;28;20157;-13
2022/12/02 06:21:53;;;;;;;5.30;2.83;;;7.10;79.60;;;;;;5075536;28;20021;-15
2022/12/02 06:24:28;;;;;;;4.55;3.00;;;7.10;80.00;;;;;;5075405;28;20028;-14
2022/12/02 06:26:57;;;;;;;6.05;3.15;;;7.10;79.80;;;;;;5075118;28;20025;-13
2022/12/02 06:29:25;;;;;;;4.75;3.42;;;7.10;80.40;;;;;;5075410;28;20020;-14
2022/12/02 06:31:51;;;;;;;8.13;4.25;;;7.00;80.50;;;;;;5075241;28;20025;-13
2022/12/02 06:34:37;;;;;;;6.60;3.42;;;7.10;80.50;;;;;;5075317;28;20023;-14
2022/12/02 06:37:20;;;;;;;5.57;3.47;;;7.10;80.10;;;;;;5075274;28;20111;-13
2022/12/02 06:39:52;;;;;;;6.03;3.53;;;7.10;80.60;;;;;;5075530;28;20024;-13
2022/12/02 06:42:32;;;;;;;4.68;3.22;;;7.10;80.50;;;;;;5074993;28;20025;-14
2022/12/02 06:45:21;;;;;;;6.30;3.90;;;7.10;80.80;;;;;;5074823;28;20083;-14
2022/12/02 06:47:50;;;;;;;7.45;4.07;;;7.10;80.60;;;;;;5075072;28;20041;-14
2022/12/02 06:50:28;;;;;;;7.00;4.05;;;7.00;80.60;;;;;;5075192;28;20396;-13
2022/12/02 06:53:11;;;;;;;5.85;3.50;;;7.10;80.70;;;;;;5074666;28;20028;-13
2022/12/02 06:55:38;;;;;;;5.65;3.50;;;7.00;80.60;;;;;;5075082;28;20031;-15
2022/12/02 06:58:27;;;;;;;7.97;3.53;;;7.10;80.70;;;;;;5074644;28;20075;-14
2022/12/02 07:01:00;;;;;;;7.80;3.78;;;7.10;80.70;;;;;;5074878;28;20111;-14
2022/12/02 07:03:32;;;;;;;5.65;3.80;;;7.10;80.70;;;;;;5074768;28;20504;-14
2022/12/02 07:06:15;;;;;;;5.80;3.70;;;7.10;80.50;;;;;;5074753;28;20033;-14
2022/12/02 07:08:42;;;;;;;6.35;3.75;;;7.10;80.70;;;;;;5074282;28;20370;-14
2022/12/02 07:11:49;;;;;;;6.45;3.78;;;7.10;80.50;;;;;;5074394;28;20028;-14
2022/12/02 07:14:49;;;;;;;5.20;3.55;;;7.10;80.30;;;;;;5074949;28;20020;-14
2022/12/02 07:17:22;;;;;;;5.65;3.88;;;7.10;80.20;;;;;;5074859;28;20028;-13
2022/12/02 07:20:05;;;;;;;6.63;4.05;;;7.10;80.30;;;;;;5074561;28;20486;-14
2022/12/02 07:22:43;;;;;;;7.43;3.97;;;7.20;80.30;;;;;;5074514;28;20039;-14
2022/12/02 07:25:09;;;;;;;7.25;4.40;;;7.20;80.30;;;;;;5072914;28;20313;-14
2022/12/02 07:27:38;;;;;;;6.88;3.97;;;7.20;80.10;;;;;;5074198;28;20504;-14
2022/12/02 07:30:23;;;;;;;6.97;3.78;;;7.20;79.90;;;;;;5074466;28;20448;-13
2022/12/02 07:32:49;;;;;;;5.15;3.83;;;7.20;79.80;;;;;;5073953;28;20067;-13
2022/12/02 07:35:15;;;;;;;6.95;4.00;;;7.30;79.80;;;;;;5074087;28;20028;-15
2022/12/02 07:37:41;;;;;;;6.13;4.20;;;7.30;79.70;;;;;;5073970;28;20024;-15
2022/12/02 07:40:07;;;;;;;6.00;4.00;;;7.30;79.60;;;;;;5073953;28;20025;-14
2022/12/02 07:42:33;;;;;;;6.68;4.00;;;7.40;79.60;;;;;;5074244;28;20029;-14
2022/12/02 07:44:59;;;;;;;6.72;3.90;;;7.40;79.50;;;;;;5073351;28;20451;-14
2022/12/02 07:47:24;;;;;;;6.22;3.80;;;7.50;79.10;;;;;;5073714;28;20111;-13
2022/12/02 07:49:50;;;;;;;7.28;3.60;;;7.50;79.10;;;;;;5074042;28;20028;-15
2022/12/02 07:52:16;;;;;;;7.20;4.00;;;7.60;79.00;;;;;;5074006;28;20033;-13
2022/12/02 07:54:42;;;;;;;6.68;4.15;;;7.60;79.10;;;;;;5072346;28;20055;-15
2022/12/02 07:57:08;;;;;;;7.05;4.10;;;7.70;79.00;;;;;;5072025;28;20456;-15
2022/12/02 07:59:33;;;;;;;6.88;4.43;;;7.70;78.70;;;;;;5073539;28;20020;-14
2022/12/02 08:01:59;;;;;;;8.02;4.57;;;7.70;78.70;;;;;;5073589;28;20039;-14
2022/12/02 08:04:25;;;;;;;7.93;5.07;;;7.70;78.50;;;;;;5073897;28;20035;-14
2022/12/02 08:06:51;;;;;;;9.32;4.70;;;7.80;78.70;;;;;;5073377;28;20536;-15
2022/12/02 08:09:17;;;;;;;8.10;4.30;;;7.70;78.30;;;;;;5073368;28;20127;-14
2022/12/02 08:11:46;;;;;;;8.35;4.70;;;7.80;78.30;;;;;;5072299;28;20029;-14
2022/12/02 08:14:11;;;;;;;9.00;4.95;;;7.80;78.40;;;;;;5073459;28;20096;-15
2022/12/02 08:16:37;;;;;;;10.38;6.18;;;7.80;78.20;;;;;;5073711;28;20024;-14
2022/12/02 08:19:03;;;;;;;15.15;7.68;;;7.80;78.20;;;;;;5073314;28;20021;-13
2022/12/02 08:21:31;;;;;;;8.27;4.82;;;7.80;78.30;;;;;;5073233;28;20073;-14
2022/12/02 08:23:57;;;;;;;7.20;4.60;;;7.90;78.30;;;;;;5073369;28;20489;-15
2022/12/02 08:26:23;;;;;;;9.20;4.97;;;7.90;78.00;;;;;;5073119;28;20031;-14
2022/12/02 08:28:48;;;;;;;7.05;4.38;;;7.90;77.50;;;;;;5072715;28;20116;-14
2022/12/02 08:31:14;;;;;;;9.10;4.88;;;7.90;77.50;;;;;;5073024;28;20066;-15
2022/12/02 08:33:40;;;;;;;11.65;6.95;;;7.90;77.70;;;;;;5072863;28;20020;-14
2022/12/02 08:36:07;;;;;;;13.63;7.43;;;7.90;77.40;;;;;;5072968;28;20031;-14
2022/12/02 08:38:33;;;;;;;9.50;5.68;;;8.00;76.90;;;;;;5072905;28;20056;-14
2022/12/02 08:40:59;;;;;;;9.25;4.55;;;8.00;76.90;;;;;;5072677;28;20061;-14
2022/12/02 08:43:25;;;;;;;9.68;5.25;;;8.10;76.90;;;;;;5072738;28;20031;-13
2022/12/02 08:45:51;;;;;;;9.57;5.53;;;8.10;76.80;;;;;;5072662;28;20055;-14
2022/12/02 08:48:17;;;;;;;6.53;4.47;;;8.10;76.50;;;;;;5072737;28;20388;-13
2022/12/02 08:50:45;;;;;;;7.15;4.25;;;8.20;76.50;;;;;;5073009;28;20045;-13
2022/12/02 08:53:11;;;;;;;6.30;4.15;;;8.20;76.10;;;;;;5072833;28;20392;-14
2022/12/02 08:55:37;;;;;;;6.22;3.63;;;8.20;76.10;;;;;;5073191;28;20507;-14
2022/12/02 08:58:03;;;;;;;7.13;4.20;;;8.20;76.10;;;;;;5072833;28;20056;-14
2022/12/02 09:00:29;;;;;;;9.15;5.72;;;8.30;76.40;;;;;;5072631;28;20024;-14
2022/12/02 09:02:55;;;;;;;6.60;4.40;;;8.30;76.20;;;;;;5072496;28;20089;-14
2022/12/02 09:05:21;;;;;;;8.10;5.10;;;8.40;76.20;;;;;;5072861;28;20027;-14
2022/12/02 09:07:47;;;;;;;12.85;6.93;;;8.40;76.10;;;;;;5072967;28;20052;-13
2022/12/02 09:10:14;;;;;;;9.80;5.68;;;8.60;75.90;;;;;;5071398;28;20032;-13
2022/12/02 09:12:40;;;;;;;9.30;4.80;;;8.60;75.50;;;;;;5072372;28;20031;-14
2022/12/02 09:15:07;;;;;;;7.35;4.35;;;8.70;75.20;;;;;;5071905;28;20044;-15
2022/12/02 09:17:33;;;;;;;8.95;4.82;;;8.70;75.20;;;;;;5073172;28;20028;-14
2022/12/02 09:19:59;;;;;;;6.28;4.05;;;8.70;74.80;;;;;;5071186;28;20071;-15
2022/12/02 09:22:25;;;;;;;6.00;3.92;;;8.70;74.70;;;;;;5072936;28;20082;-15
2022/12/02 09:24:51;;;;;;;6.28;4.05;;;8.70;74.50;;;;;;5072170;28;20551;-13
2022/12/02 09:27:17;;;;;;;5.32;3.40;;;8.70;74.20;;;;;;5071612;28;20025;-14
2022/12/02 09:29:43;;;;;;;6.32;3.95;;;8.80;74.40;;;;;;5072596;28;20037;-14
2022/12/02 09:32:09;;;;;;;7.63;4.60;;;8.90;74.60;;;;;;5075231;28;20475;-13
2022/12/02 09:34:35;;;;;;;6.97;3.63;;;8.90;73.80;;;;;;5076511;28;20025;-13
2022/12/02 09:37:01;;;;;;;6.78;3.65;;;8.90;72.70;;;;;;5076642;28;20040;-14
2022/12/02 09:39:27;;;;;;;7.10;3.92;;;8.90;73.60;;;;;;5076266;28;20464;-13
2022/12/02 09:41:53;;;;;;;6.60;4.03;;;8.90;73.90;;;;;;5076099;28;20029;-14
2022/12/02 09:44:18;;;;;;;7.03;3.72;;;8.90;73.10;;;;;;5076185;28;20377;-14
2022/12/02 09:46:45;;;;;;;5.43;3.42;;;9.00;72.60;;;;;;5076372;28;20042;-13
2022/12/02 09:49:11;;;;;;;5.57;3.65;;;9.10;72.30;;;;;;5076231;28;20093;-15
2022/12/02 09:51:37;;;;;;;6.85;3.85;;;9.10;71.70;;;;;;5076373;28;20032;-14
2022/12/02 09:54:03;;;;;;;7.25;3.67;;;9.20;71.60;;;;;;5076083;28;20492;-14
2022/12/02 09:56:29;;;;;;;5.30;3.40;;;9.30;70.80;;;;;;5076266;28;20063;-15
2022/12/02 09:58:56;;;;;;;6.25;3.40;;;9.40;70.80;;;;;;5075651;28;20029;-14
2022/12/02 10:01:24;;;;;;;5.22;3.03;;;9.50;70.70;;;;;;5076547;28;20028;-13
2022/12/02 10:03:51;;;;;;;5.82;3.50;;;9.50;70.10;;;;;;5076555;28;20024;-14
2022/12/02 10:06:23;;;;;;;4.50;3.25;;;9.40;69.30;;;;;;5076067;28;20104;-14
2022/12/02 10:08:51;;;;;;;4.57;3.38;;;9.30;68.80;;;;;;5075660;28;20115;-15
2022/12/02 10:11:26;;;;;;;5.95;3.85;;;9.20;70.20;;;;;;5075547;28;20020;-15
2022/12/02 10:13:55;;;;;;;5.50;3.38;;;9.20;70.30;;;;;;5075696;28;20115;-15
2022/12/02 10:16:21;;;;;;;4.60;3.40;;;9.00;70.50;;;;;;5075858;28;20572;-14
2022/12/02 10:18:48;;;;;;;7.95;4.43;;;8.90;70.10;;;;;;5075263;28;20028;-13
2022/12/02 10:21:14;;;;;;;7.07;4.45;;;8.80;69.80;;;;;;5075805;28;20158;-14
2022/12/02 10:23:56;;;;;;;5.03;3.80;;;8.80;70.20;;;;;;5075389;28;20484;-14
2022/12/02 10:26:22;;;;;;;5.70;3.47;;;8.80;70.00;;;;;;5075751;28;20120;-14
2022/12/02 10:29:28;;;;;;;5.57;3.50;;;8.90;70.60;;;;;;5075399;28;20032;-13
2022/12/02 10:31:59;;;;;;;7.85;4.80;;;8.90;71.40;;;;;;5033504;28;20030;-15
2022/12/02 10:34:27;;;;;;;5.13;3.47;;;9.00;70.80;;;;;;5033242;28;20454;-14
2022/12/02 10:36:53;;;;;;;5.45;3.58;;;9.10;70.40;;;;;;5033192;28;20108;-15
2022/12/02 10:39:29;;;;;;;6.18;3.58;;;9.10;70.10;;;;;;5033161;28;20104;-15
2022/12/02 10:42:03;;;;;;;4.70;3.15;;;9.10;70.40;;;;;;5031772;28;20041;-14
2022/12/02 10:44:38;;;;;;;5.15;3.13;;;9.10;70.60;;;;;;5033074;28;20061;-14
2022/12/02 10:47:23;;;;;;;4.18;3.05;;;9.20;70.40;;;;;;5032747;28;20148;-15
2022/12/02 10:49:57;;;;;;;5.15;3.40;;;9.30;70.00;;;;;;5032918;28;20458;-14
2022/12/02 10:52:28;;;;;;;4.95;3.33;;;9.40;69.50;;;;;;5033018;28;20021;-14
2022/12/02 10:54:56;;;;;;;5.45;3.00;;;9.40;68.80;;;;;;5032874;28;20083;-14
2022/12/02 10:57:25;;;;;;;5.35;3.40;;;9.30;69.00;;;;;;5016187;28;20037;-13
2022/12/02 10:59:52;;;;;;;5.13;3.80;;;9.30;69.00;;;;;;5032754;28;20029;-15
2022/12/02 11:02:22;;;;;;;4.57;3.17;;;9.20;68.80;;;;;;5032769;28;20086;-13
2022/12/02 11:04:49;;;;;;;5.10;3.40;;;9.10;69.20;;;;;;5032479;28;20029;-13
2022/12/02 11:07:18;;;;;;;4.75;3.17;;;9.10;68.90;;;;;;5051860;28;20430;-14
2022/12/02 11:09:50;;;;;;;4.85;3.20;;;9.10;69.20;;;;;;5074973;28;20071;-14
2022/12/02 11:12:30;;;;;;;4.50;3.53;;;9.10;68.80;;;;;;5074882;28;20495;-15
2022/12/02 11:14:56;;;;;;;6.55;3.85;;;9.00;69.40;;;;;;5074646;28;20100;-14
2022/12/02 11:17:56;;;;;;;4.97;3.40;;;9.00;69.80;;;;;;5074500;28;20071;-13
2022/12/02 11:20:34;;;;;;;4.00;3.47;;;9.10;69.70;;;;;;5032478;28;20550;-14
2022/12/02 11:23:00;;;;;;;4.25;3.08;;;9.10;68.90;;;;;;5015615;28;20100;-15
2022/12/02 11:25:41;;;;;;;8.50;3.20;;;9.20;69.40;;;;;;5032752;28;20533;-14
2022/12/02 11:28:28;;;;;;;4.88;3.17;;;9.30;69.60;;;;;;5032180;28;20038;-14
2022/12/02 11:31:16;;;;;;;6.25;3.83;;;9.40;69.90;;;;;;5032111;28;20064;-15
2022/12/02 11:33:48;;;;;;;7.22;3.22;;;9.40;68.90;;;;;;5032213;28;20036;-14
2022/12/02 11:36:18;;;;;;;3.05;2.67;;;9.40;68.60;;;;;;5032105;28;20043;-14
2022/12/02 11:38:50;;;;;;;4.45;3.35;;;9.30;68.60;;;;;;5032267;28;20025;-14
2022/12/02 11:41:25;;;;;;;5.75;3.25;;;9.30;68.30;;;;;;5032029;28;20121;-15
2022/12/02 11:43:58;;;;;;;6.20;3.08;;;9.40;68.60;;;;;;5014959;28;20030;-14
2022/12/02 11:46:45;;;;;;;4.57;3.17;;;9.40;69.40;;;;;;5031950;28;20045;-14
2022/12/02 11:49:37;;;;;;;3.53;2.63;;;9.40;69.00;;;;;;5031868;28;20260;-13
2022/12/02 11:52:08;;;;;;;3.45;2.80;;;9.50;68.40;;;;;;5031806;28;20076;-14
2022/12/02 11:54:40;;;;;;;4.68;2.40;;;9.60;68.60;;;;;;5031495;28;20033;-14
2022/12/02 11:57:06;;;;;;;2.92;2.50;;;9.70;67.90;;;;;;5073102;28;20040;-15
2022/12/02 11:59:35;;;;;;;4.40;3.00;;;9.80;67.40;;;;;;5072255;28;20033;-15
2022/12/02 12:02:27;;;;;;;5.25;3.40;;;9.80;67.70;;;;;;5073865;28;20107;-14
2022/12/02 12:05:06;;;;;;;3.88;2.80;;;9.90;68.40;;;;;;5031497;28;20037;-15
2022/12/02 12:07:42;;;;;;;6.88;3.17;;;9.80;67.50;;;;;;5031309;28;20497;-15
2022/12/02 12:10:28;;;;;;;4.80;3.17;;;9.90;68.20;;;;;;5031454;28;20109;-14
2022/12/02 12:13:11;;;;;;;5.40;3.58;;;9.90;68.40;;;;;;5030814;28;20453;-14
2022/12/02 12:15:57;;;;;;;5.10;3.60;;;9.90;67.60;;;;;;5031224;28;20045;-14
2022/12/02 12:18:46;;;;;;;4.35;3.10;;;9.80;67.90;;;;;;5031059;28;20040;-14
2022/12/02 12:21:14;;;;;;;6.00;3.45;;;9.80;67.60;;;;;;5030923;28;20116;-15
2022/12/02 12:23:44;;;;;;;5.45;3.63;;;9.90;67.70;;;;;;5031453;28;20104;-15
2022/12/02 12:26:30;;;;;;;6.45;3.47;;;9.90;67.80;;;;;;5014487;28;20045;-14
2022/12/02 12:29:01;;;;;;;5.90;3.80;;;9.90;67.10;;;;;;5030955;28;20041;-14
2022/12/02 12:31:27;;;;;;;6.95;3.92;;;9.90;67.00;;;;;;5031139;28;20454;-13
2022/12/02 12:33:53;;;;;;;7.68;4.00;;;10.00;66.00;;;;;;5030994;28;20033;-15
2022/12/02 12:36:19;;;;;;;5.90;3.60;;;10.00;67.00;;;;;;5031226;28;20505;-14
2022/12/02 12:38:45;;;;;;;6.18;4.10;;;10.10;66.20;;;;;;5030977;28;20128;-13
2022/12/02 12:41:11;;;;;;;7.82;3.78;;;10.10;66.40;;;;;;5043823;28;20045;-14
2022/12/02 12:43:37;;;;;;;5.93;3.72;;;10.20;66.00;;;;;;5072817;28;20028;-14
2022/12/02 12:46:03;;;;;;;6.88;3.78;;;10.20;66.20;;;;;;5072906;28;20133;-14
2022/12/02 12:48:29;;;;;;;4.70;3.67;;;10.20;65.60;;;;;;5072962;28;20044;-14
2022/12/02 12:50:55;;;;;;;4.40;3.00;;;10.30;65.70;;;;;;5073165;28;20104;-15
2022/12/02 12:53:21;;;;;;;4.60;3.10;;;10.30;65.90;;;;;;5072870;28;20024;-13
2022/12/02 12:55:47;;;;;;;5.72;3.38;;;10.40;63.90;;;;;;5072989;28;20035;-14
2022/12/02 12:58:13;;;;;;;4.45;3.15;;;10.40;64.50;;;;;;5072936;28;20107;-15
2022/12/02 13:00:40;;;;;;;5.15;3.30;;;10.30;64.40;;;;;;5072993;28;20029;-14
2022/12/02 13:03:06;;;;;;;4.45;2.90;;;10.30;64.10;;;;;;5072502;28;20480;-14
2022/12/02 13:05:32;;;;;;;5.20;3.50;;;10.40;64.80;;;;;;5071913;28;20032;-16
2022/12/02 13:07:58;;;;;;;7.45;3.67;;;10.40;65.30;;;;;;5072722;28;20480;-15